sensor_id;sensor_type;location;lat;lon;timestamp;temperature;humidity
11246;DHT22;59870;50.106;8.580;2023-09-30T00:00:31;22.30;86.40
11246;DHT22;59870;50.106;8.580;2023-09-30T00:03:00;22.20;86.30
11246;DHT22;59870;50.106;8.580;2023-09-30T00:05:28;22.50;86.40
11246;DHT22;59870;50.106;8.580;2023-09-30T00:07:55;22.20;86.30
11246;DHT22;59870;50.106;8.580;2023-09-30T00:10:22;22.20;86.40
11246;DHT22;59870;50.106;8.580;2023-09-30T00:12:50;22.20;86.40
11246;DHT22;59870;50.106;8.580;2023-09-30T00:15:18;22.20;86.70
11246;DHT22;59870;50.106;8.580;2023-09-30T00:17:45;22.20;86.90
11246;DHT22;59870;50.106;8.580;2023-09-30T00:20:13;22.10;86.90
11246;DHT22;59870;50.106;8.580;2023-09-30T00:22:42;22.10;87.00
11246;DHT22;59870;50.106;8.580;2023-09-30T00:25:09;22.10;87.10
11246;DHT22;59870;50.106;8.580;2023-09-30T00:27:39;22.10;86.80
11246;DHT22;59870;50.106;8.580;2023-09-30T00:30:07;22.00;86.70
11246;DHT22;59870;50.106;8.580;2023-09-30T00:32:35;22.00;86.70
11246;DHT22;59870;50.106;8.580;2023-09-30T00:35:03;22.00;87.00
11246;DHT22;59870;50.106;8.580;2023-09-30T00:37:30;22.00;87.00
11246;DHT22;59870;50.106;8.580;2023-09-30T00:39:58;21.90;86.90
11246;DHT22;59870;50.106;8.580;2023-09-30T00:42:25;21.90;87.30
11246;DHT22;59870;50.106;8.580;2023-09-30T00:44:53;21.90;87.60
11246;DHT22;59870;50.106;8.580;2023-09-30T00:47:22;21.80;87.30
11246;DHT22;59870;50.106;8.580;2023-09-30T00:49:53;21.80;87.20
11246;DHT22;59870;50.106;8.580;2023-09-30T00:52:21;21.80;87.00
11246;DHT22;59870;50.106;8.580;2023-09-30T00:54:49;21.70;86.70
11246;DHT22;59870;50.106;8.580;2023-09-30T00:57:17;21.80;86.70
11246;DHT22;59870;50.106;8.580;2023-09-30T00:59:48;21.70;86.50
11246;DHT22;59870;50.106;8.580;2023-09-30T01:02:18;21.70;86.50
11246;DHT22;59870;50.106;8.580;2023-09-30T01:04:46;21.70;86.80
11246;DHT22;59870;50.106;8.580;2023-09-30T01:07:15;21.70;86.80
11246;DHT22;59870;50.106;8.580;2023-09-30T01:09:43;21.70;86.60
11246;DHT22;59870;50.106;8.580;2023-09-30T01:12:10;21.70;86.60
11246;DHT22;59870;50.106;8.580;2023-09-30T01:14:38;21.60;86.30
11246;DHT22;59870;50.106;8.580;2023-09-30T01:17:06;21.60;86.40
11246;DHT22;59870;50.106;8.580;2023-09-30T01:19:35;21.60;86.40
11246;DHT22;59870;50.106;8.580;2023-09-30T01:22:03;21.60;86.80
11246;DHT22;59870;50.106;8.580;2023-09-30T01:24:38;21.60;86.90
11246;DHT22;59870;50.106;8.580;2023-09-30T01:27:10;21.50;86.70
11246;DHT22;59870;50.106;8.580;2023-09-30T01:29:39;21.50;86.50
11246;DHT22;59870;50.106;8.580;2023-09-30T01:32:06;21.50;86.50
11246;DHT22;59870;50.106;8.580;2023-09-30T01:34:36;21.60;86.10
11246;DHT22;59870;50.106;8.580;2023-09-30T01:37:04;21.40;85.10
11246;DHT22;59870;50.106;8.580;2023-09-30T01:39:32;21.40;85.20
11246;DHT22;59870;50.106;8.580;2023-09-30T01:42:01;21.40;84.80
11246;DHT22;59870;50.106;8.580;2023-09-30T01:44:28;21.40;84.80
11246;DHT22;59870;50.106;8.580;2023-09-30T01:46:56;21.40;84.90
11246;DHT22;59870;50.106;8.580;2023-09-30T01:49:23;21.40;85.10
11246;DHT22;59870;50.106;8.580;2023-09-30T01:51:55;21.40;85.50
11246;DHT22;59870;50.106;8.580;2023-09-30T01:54:22;21.40;85.30
11246;DHT22;59870;50.106;8.580;2023-09-30T01:56:50;21.40;85.60
11246;DHT22;59870;50.106;8.580;2023-09-30T01:59:18;21.30;85.80
11246;DHT22;59870;50.106;8.580;2023-09-30T02:01:45;21.30;85.90
11246;DHT22;59870;50.106;8.580;2023-09-30T02:04:13;21.40;85.60
11246;DHT22;59870;50.106;8.580;2023-09-30T02:06:44;21.30;86.30
11246;DHT22;59870;50.106;8.580;2023-09-30T02:09:12;21.30;86.60
11246;DHT22;59870;50.106;8.580;2023-09-30T02:11:40;21.20;86.70
11246;DHT22;59870;50.106;8.580;2023-09-30T02:14:09;21.20;86.60
11246;DHT22;59870;50.106;8.580;2023-09-30T02:16:40;21.20;86.70
11246;DHT22;59870;50.106;8.580;2023-09-30T02:19:07;21.10;86.80
11246;DHT22;59870;50.106;8.580;2023-09-30T02:21:38;21.10;87.10
11246;DHT22;59870;50.106;8.580;2023-09-30T02:24:06;21.00;87.20
11246;DHT22;59870;50.106;8.580;2023-09-30T02:26:35;21.00;87.40
11246;DHT22;59870;50.106;8.580;2023-09-30T02:29:02;21.00;87.50
11246;DHT22;59870;50.106;8.580;2023-09-30T02:31:29;20.90;87.40
11246;DHT22;59870;50.106;8.580;2023-09-30T02:33:57;20.90;87.80
11246;DHT22;59870;50.106;8.580;2023-09-30T02:36:25;20.90;88.10
11246;DHT22;59870;50.106;8.580;2023-09-30T02:38:54;20.80;88.00
11246;DHT22;59870;50.106;8.580;2023-09-30T02:41:21;20.80;88.00
11246;DHT22;59870;50.106;8.580;2023-09-30T02:43:49;20.70;87.90
11246;DHT22;59870;50.106;8.580;2023-09-30T02:46:17;20.70;88.00
11246;DHT22;59870;50.106;8.580;2023-09-30T02:48:46;20.70;88.10
11246;DHT22;59870;50.106;8.580;2023-09-30T02:51:13;20.70;88.30
11246;DHT22;59870;50.106;8.580;2023-09-30T02:53:41;20.60;88.40
11246;DHT22;59870;50.106;8.580;2023-09-30T02:56:09;20.60;88.50
11246;DHT22;59870;50.106;8.580;2023-09-30T02:58:38;20.60;88.60
11246;DHT22;59870;50.106;8.580;2023-09-30T03:01:07;20.50;88.50
11246;DHT22;59870;50.106;8.580;2023-09-30T03:03:40;20.50;88.70
11246;DHT22;59870;50.106;8.580;2023-09-30T03:06:07;20.50;88.80
11246;DHT22;59870;50.106;8.580;2023-09-30T03:08:34;20.50;88.80
11246;DHT22;59870;50.106;8.580;2023-09-30T03:11:02;20.40;88.90
11246;DHT22;59870;50.106;8.580;2023-09-30T03:13:31;20.40;89.30
11246;DHT22;59870;50.106;8.580;2023-09-30T03:15:59;20.30;89.50
11246;DHT22;59870;50.106;8.580;2023-09-30T03:18:28;20.30;89.50
11246;DHT22;59870;50.106;8.580;2023-09-30T03:21:00;20.30;89.70
11246;DHT22;59870;50.106;8.580;2023-09-30T03:23:28;20.30;89.60
11246;DHT22;59870;50.106;8.580;2023-09-30T03:25:58;20.30;89.90
11246;DHT22;59870;50.106;8.580;2023-09-30T03:28:26;20.20;90.00
11246;DHT22;59870;50.106;8.580;2023-09-30T03:30:53;20.20;89.80
11246;DHT22;59870;50.106;8.580;2023-09-30T03:33:21;20.10;89.90
11246;DHT22;59870;50.106;8.580;2023-09-30T03:35:49;20.10;90.00
11246;DHT22;59870;50.106;8.580;2023-09-30T03:38:16;20.00;90.10
11246;DHT22;59870;50.106;8.580;2023-09-30T03:40:45;20.00;90.10
11246;DHT22;59870;50.106;8.580;2023-09-30T03:43:16;19.90;90.20
11246;DHT22;59870;50.106;8.580;2023-09-30T03:45:44;19.90;90.30
11246;DHT22;59870;50.106;8.580;2023-09-30T03:48:12;19.90;90.40
11246;DHT22;59870;50.106;8.580;2023-09-30T03:50:40;19.90;90.80
11246;DHT22;59870;50.106;8.580;2023-09-30T03:53:08;19.80;90.50
11246;DHT22;59870;50.106;8.580;2023-09-30T03:55:35;19.80;90.50
11246;DHT22;59870;50.106;8.580;2023-09-30T03:58:04;19.80;90.60
11246;DHT22;59870;50.106;8.580;2023-09-30T04:00:31;19.80;90.70
11246;DHT22;59870;50.106;8.580;2023-09-30T04:02:59;19.80;90.80
11246;DHT22;59870;50.106;8.580;2023-09-30T04:05:27;19.70;90.80
11246;DHT22;59870;50.106;8.580;2023-09-30T04:07:59;19.70;91.00
11246;DHT22;59870;50.106;8.580;2023-09-30T04:10:27;19.70;91.00
11246;DHT22;59870;50.106;8.580;2023-09-30T04:12:54;19.70;91.10
11246;DHT22;59870;50.106;8.580;2023-09-30T04:15:22;19.70;91.20
11246;DHT22;59870;50.106;8.580;2023-09-30T04:17:50;19.70;91.20
11246;DHT22;59870;50.106;8.580;2023-09-30T04:20:18;19.70;91.20
11246;DHT22;59870;50.106;8.580;2023-09-30T04:22:51;19.60;91.20
11246;DHT22;59870;50.106;8.580;2023-09-30T04:25:18;19.60;91.20
11246;DHT22;59870;50.106;8.580;2023-09-30T04:27:47;19.60;91.10
11246;DHT22;59870;50.106;8.580;2023-09-30T04:30:18;19.60;91.20
11246;DHT22;59870;50.106;8.580;2023-09-30T04:32:45;19.60;91.20
11246;DHT22;59870;50.106;8.580;2023-09-30T04:35:13;19.60;91.10
11246;DHT22;59870;50.106;8.580;2023-09-30T04:37:40;19.50;91.10
11246;DHT22;59870;50.106;8.580;2023-09-30T04:40:09;19.50;91.00
11246;DHT22;59870;50.106;8.580;2023-09-30T04:42:43;19.50;91.00
11246;DHT22;59870;50.106;8.580;2023-09-30T04:45:14;19.50;91.00
11246;DHT22;59870;50.106;8.580;2023-09-30T04:47:48;19.50;91.00
11246;DHT22;59870;50.106;8.580;2023-09-30T04:50:17;19.50;91.10
11246;DHT22;59870;50.106;8.580;2023-09-30T04:52:44;19.50;91.10
11246;DHT22;59870;50.106;8.580;2023-09-30T04:55:12;19.50;91.10
11246;DHT22;59870;50.106;8.580;2023-09-30T04:57:44;19.40;91.10
11246;DHT22;59870;50.106;8.580;2023-09-30T05:00:17;19.40;91.10
11246;DHT22;59870;50.106;8.580;2023-09-30T05:02:46;19.40;91.10
11246;DHT22;59870;50.106;8.580;2023-09-30T05:05:14;19.40;91.10
11246;DHT22;59870;50.106;8.580;2023-09-30T05:07:42;19.80;91.20
11246;DHT22;59870;50.106;8.580;2023-09-30T05:10:11;19.50;91.10
11246;DHT22;59870;50.106;8.580;2023-09-30T05:12:42;19.40;91.10
11246;DHT22;59870;50.106;8.580;2023-09-30T05:15:15;19.40;91.00
11246;DHT22;59870;50.106;8.580;2023-09-30T05:17:44;19.40;91.30
11246;DHT22;59870;50.106;8.580;2023-09-30T05:20:12;19.40;91.50
11246;DHT22;59870;50.106;8.580;2023-09-30T05:22:41;19.40;91.40
11246;DHT22;59870;50.106;8.580;2023-09-30T05:25:13;19.40;91.60
11246;DHT22;59870;50.106;8.580;2023-09-30T05:27:46;19.30;91.70
11246;DHT22;59870;50.106;8.580;2023-09-30T05:30:17;19.30;91.70
11246;DHT22;59870;50.106;8.580;2023-09-30T05:32:47;19.30;91.60
11246;DHT22;59870;50.106;8.580;2023-09-30T05:35:14;19.30;91.40
11246;DHT22;59870;50.106;8.580;2023-09-30T05:37:44;19.30;91.50
11246;DHT22;59870;50.106;8.580;2023-09-30T05:40:15;19.30;91.50
11246;DHT22;59870;50.106;8.580;2023-09-30T05:42:58;19.30;91.40
11246;DHT22;59870;50.106;8.580;2023-09-30T05:45:27;19.30;91.40
11246;DHT22;59870;50.106;8.580;2023-09-30T05:47:55;19.30;91.40
11246;DHT22;59870;50.106;8.580;2023-09-30T05:50:24;19.30;91.50
11246;DHT22;59870;50.106;8.580;2023-09-30T05:52:54;19.20;91.50
11246;DHT22;59870;50.106;8.580;2023-09-30T05:55:23;19.20;91.40
11246;DHT22;59870;50.106;8.580;2023-09-30T05:57:52;19.20;91.40
11246;DHT22;59870;50.106;8.580;2023-09-30T06:00:21;19.10;91.40
11246;DHT22;59870;50.106;8.580;2023-09-30T06:03:02;19.10;91.50
11246;DHT22;59870;50.106;8.580;2023-09-30T06:05:34;19.10;91.70
11246;DHT22;59870;50.106;8.580;2023-09-30T06:08:03;19.00;91.70
11246;DHT22;59870;50.106;8.580;2023-09-30T06:10:31;19.00;91.80
11246;DHT22;59870;50.106;8.580;2023-09-30T06:12:59;19.00;92.00
11246;DHT22;59870;50.106;8.580;2023-09-30T06:15:28;19.00;92.10
11246;DHT22;59870;50.106;8.580;2023-09-30T06:17:56;19.00;92.10
11246;DHT22;59870;50.106;8.580;2023-09-30T06:20:25;19.00;92.20
11246;DHT22;59870;50.106;8.580;2023-09-30T06:22:59;19.00;92.20
11246;DHT22;59870;50.106;8.580;2023-09-30T06:25:29;19.00;92.20
11246;DHT22;59870;50.106;8.580;2023-09-30T06:27:58;19.00;92.30
11246;DHT22;59870;50.106;8.580;2023-09-30T06:30:28;19.00;92.40
11246;DHT22;59870;50.106;8.580;2023-09-30T06:33:01;18.90;92.50
11246;DHT22;59870;50.106;8.580;2023-09-30T06:35:29;19.00;92.60
11246;DHT22;59870;50.106;8.580;2023-09-30T06:37:57;19.00;92.60
11246;DHT22;59870;50.106;8.580;2023-09-30T06:40:25;19.00;92.60
11246;DHT22;59870;50.106;8.580;2023-09-30T06:42:53;19.00;92.60
11246;DHT22;59870;50.106;8.580;2023-09-30T06:45:20;19.00;92.70
11246;DHT22;59870;50.106;8.580;2023-09-30T06:47:49;19.40;92.80
11246;DHT22;59870;50.106;8.580;2023-09-30T06:50:17;19.00;92.60
11246;DHT22;59870;50.106;8.580;2023-09-30T06:52:44;19.00;92.70
11246;DHT22;59870;50.106;8.580;2023-09-30T06:55:17;19.00;92.60
11246;DHT22;59870;50.106;8.580;2023-09-30T06:57:45;19.10;92.60
11246;DHT22;59870;50.106;8.580;2023-09-30T07:00:14;19.10;92.60
11246;DHT22;59870;50.106;8.580;2023-09-30T07:02:41;19.10;92.70
11246;DHT22;59870;50.106;8.580;2023-09-30T07:05:11;19.10;92.70
11246;DHT22;59870;50.106;8.580;2023-09-30T07:07:39;19.20;92.70
11246;DHT22;59870;50.106;8.580;2023-09-30T07:10:07;19.20;92.70
11246;DHT22;59870;50.106;8.580;2023-09-30T07:12:35;19.20;92.40
11246;DHT22;59870;50.106;8.580;2023-09-30T07:15:05;19.30;92.40
11246;DHT22;59870;50.106;8.580;2023-09-30T07:17:33;19.40;92.40
11246;DHT22;59870;50.106;8.580;2023-09-30T07:20:04;19.50;92.20
11246;DHT22;59870;50.106;8.580;2023-09-30T07:22:33;19.60;92.20
11246;DHT22;59870;50.106;8.580;2023-09-30T07:25:12;19.70;92.30
11246;DHT22;59870;50.106;8.580;2023-09-30T07:27:44;19.90;92.10
11246;DHT22;59870;50.106;8.580;2023-09-30T07:30:13;20.10;91.90
11246;DHT22;59870;50.106;8.580;2023-09-30T07:32:43;20.30;91.10
11246;DHT22;59870;50.106;8.580;2023-09-30T07:35:12;20.50;90.70
11246;DHT22;59870;50.106;8.580;2023-09-30T07:37:42;20.60;90.70
11246;DHT22;59870;50.106;8.580;2023-09-30T07:40:12;20.80;90.30
11246;DHT22;59870;50.106;8.580;2023-09-30T07:42:39;21.00;89.80
11246;DHT22;59870;50.106;8.580;2023-09-30T07:45:08;21.20;89.30
11246;DHT22;59870;50.106;8.580;2023-09-30T07:47:36;21.50;88.90
11246;DHT22;59870;50.106;8.580;2023-09-30T07:50:04;21.70;87.60
11246;DHT22;59870;50.106;8.580;2023-09-30T07:52:39;22.00;85.80
11246;DHT22;59870;50.106;8.580;2023-09-30T07:55:09;22.30;84.60
11246;DHT22;59870;50.106;8.580;2023-09-30T07:57:40;22.50;84.70
11246;DHT22;59870;50.106;8.580;2023-09-30T08:00:09;22.80;84.10
11246;DHT22;59870;50.106;8.580;2023-09-30T08:02:42;23.10;82.40
11246;DHT22;59870;50.106;8.580;2023-09-30T08:05:10;23.40;81.30
11246;DHT22;59870;50.106;8.580;2023-09-30T08:07:39;23.70;79.40
11246;DHT22;59870;50.106;8.580;2023-09-30T08:10:07;24.00;77.50
11246;DHT22;59870;50.106;8.580;2023-09-30T08:12:40;24.20;76.90
11246;DHT22;59870;50.106;8.580;2023-09-30T08:15:10;24.40;76.80
11246;DHT22;59870;50.106;8.580;2023-09-30T08:17:40;24.60;75.80
11246;DHT22;59870;50.106;8.580;2023-09-30T08:20:08;24.70;75.70
11246;DHT22;59870;50.106;8.580;2023-09-30T08:22:37;24.80;73.40
11246;DHT22;59870;50.106;8.580;2023-09-30T08:25:05;24.90;74.10
11246;DHT22;59870;50.106;8.580;2023-09-30T08:27:33;24.90;73.60
11246;DHT22;59870;50.106;8.580;2023-09-30T08:30:02;25.10;73.80
11246;DHT22;59870;50.106;8.580;2023-09-30T08:32:34;25.30;72.70
11246;DHT22;59870;50.106;8.580;2023-09-30T08:35:03;25.70;71.40
11246;DHT22;59870;50.106;8.580;2023-09-30T08:37:31;25.90;71.30
11246;DHT22;59870;50.106;8.580;2023-09-30T08:39:58;26.10;70.70
11246;DHT22;59870;50.106;8.580;2023-09-30T08:42:27;26.40;70.80
11246;DHT22;59870;50.106;8.580;2023-09-30T08:45:00;26.70;69.80
11246;DHT22;59870;50.106;8.580;2023-09-30T08:47:28;27.00;66.70
11246;DHT22;59870;50.106;8.580;2023-09-30T08:50:00;27.30;65.90
11246;DHT22;59870;50.106;8.580;2023-09-30T08:52:34;27.60;67.20
11246;DHT22;59870;50.106;8.580;2023-09-30T08:55:11;28.20;67.30
11246;DHT22;59870;50.106;8.580;2023-09-30T08:57:41;28.20;63.90
11246;DHT22;59870;50.106;8.580;2023-09-30T09:00:11;28.60;63.60
11246;DHT22;59870;50.106;8.580;2023-09-30T09:02:40;28.90;61.80
11246;DHT22;59870;50.106;8.580;2023-09-30T09:05:08;29.20;61.10
11246;DHT22;59870;50.106;8.580;2023-09-30T09:07:37;29.60;60.00
11246;DHT22;59870;50.106;8.580;2023-09-30T09:10:11;29.80;57.40
11246;DHT22;59870;50.106;8.580;2023-09-30T09:12:41;29.90;58.50
11246;DHT22;59870;50.106;8.580;2023-09-30T09:15:27;30.20;55.70
11246;DHT22;59870;50.106;8.580;2023-09-30T09:17:57;30.50;59.40
11246;DHT22;59870;50.106;8.580;2023-09-30T09:20:25;30.70;55.10
11246;DHT22;59870;50.106;8.580;2023-09-30T09:22:54;31.00;54.30
11246;DHT22;59870;50.106;8.580;2023-09-30T09:25:23;31.00;54.80
11246;DHT22;59870;50.106;8.580;2023-09-30T09:27:52;31.20;54.00
11246;DHT22;59870;50.106;8.580;2023-09-30T09:30:25;31.30;53.10
11246;DHT22;59870;50.106;8.580;2023-09-30T09:33:04;31.40;53.20
11246;DHT22;59870;50.106;8.580;2023-09-30T09:35:34;31.60;53.80
11246;DHT22;59870;50.106;8.580;2023-09-30T09:38:06;31.60;53.10
11246;DHT22;59870;50.106;8.580;2023-09-30T09:40:35;31.60;52.50
11246;DHT22;59870;50.106;8.580;2023-09-30T09:43:04;31.60;51.90
11246;DHT22;59870;50.106;8.580;2023-09-30T09:45:34;31.60;51.10
11246;DHT22;59870;50.106;8.580;2023-09-30T09:48:03;31.50;50.10
11246;DHT22;59870;50.106;8.580;2023-09-30T09:50:32;31.30;50.70
11246;DHT22;59870;50.106;8.580;2023-09-30T09:53:00;31.40;49.30
11246;DHT22;59870;50.106;8.580;2023-09-30T09:55:28;31.40;51.10
11246;DHT22;59870;50.106;8.580;2023-09-30T09:57:56;30.90;51.90
11246;DHT22;59870;50.106;8.580;2023-09-30T10:00:26;30.60;52.40
11246;DHT22;59870;50.106;8.580;2023-09-30T10:02:53;30.50;52.50
11246;DHT22;59870;50.106;8.580;2023-09-30T10:05:21;30.10;51.80
11246;DHT22;59870;50.106;8.580;2023-09-30T10:08:00;29.90;51.00
11246;DHT22;59870;50.106;8.580;2023-09-30T10:10:29;29.80;50.10
11246;DHT22;59870;50.106;8.580;2023-09-30T10:12:57;29.50;50.10
11246;DHT22;59870;50.106;8.580;2023-09-30T10:18:10;29.20;49.20
11246;DHT22;59870;50.106;8.580;2023-09-30T10:20:43;28.90;51.40
11246;DHT22;59870;50.106;8.580;2023-09-30T10:23:20;28.90;50.10
11246;DHT22;59870;50.106;8.580;2023-09-30T10:25:49;28.90;50.50
11246;DHT22;59870;50.106;8.580;2023-09-30T10:28:40;28.60;51.60
11246;DHT22;59870;50.106;8.580;2023-09-30T10:31:12;28.40;52.40
11246;DHT22;59870;50.106;8.580;2023-09-30T10:36:29;28.20;52.80
11246;DHT22;59870;50.106;8.580;2023-09-30T10:38:57;28.10;51.20
11246;DHT22;59870;50.106;8.580;2023-09-30T10:49:52;27.50;50.10
11246;DHT22;59870;50.106;8.580;2023-09-30T10:52:23;27.50;49.80
11246;DHT22;59870;50.106;8.580;2023-09-30T10:54:52;27.40;51.70
11246;DHT22;59870;50.106;8.580;2023-09-30T10:57:28;27.30;51.70
11246;DHT22;59870;50.106;8.580;2023-09-30T11:00:12;27.40;52.00
11246;DHT22;59870;50.106;8.580;2023-09-30T11:02:52;27.10;52.30
11246;DHT22;59870;50.106;8.580;2023-09-30T11:05:20;27.00;51.10
11246;DHT22;59870;50.106;8.580;2023-09-30T11:08:03;27.00;51.80
11246;DHT22;59870;50.106;8.580;2023-09-30T11:10:31;26.80;51.20
11246;DHT22;59870;50.106;8.580;2023-09-30T11:12:59;26.80;51.80
11246;DHT22;59870;50.106;8.580;2023-09-30T11:15:27;26.70;51.20
11246;DHT22;59870;50.106;8.580;2023-09-30T11:18:13;26.70;52.30
11246;DHT22;59870;50.106;8.580;2023-09-30T11:20:44;26.60;52.10
11246;DHT22;59870;50.106;8.580;2023-09-30T11:23:12;26.60;51.80
11246;DHT22;59870;50.106;8.580;2023-09-30T11:25:40;26.80;52.80
11246;DHT22;59870;50.106;8.580;2023-09-30T11:28:15;26.70;54.70
11246;DHT22;59870;50.106;8.580;2023-09-30T11:30:59;26.40;54.00
11246;DHT22;59870;50.106;8.580;2023-09-30T11:33:27;26.30;52.90
11246;DHT22;59870;50.106;8.580;2023-09-30T11:36:05;26.40;52.90
11246;DHT22;59870;50.106;8.580;2023-09-30T11:38:34;26.60;53.10
11246;DHT22;59870;50.106;8.580;2023-09-30T11:41:06;26.60;50.70
11246;DHT22;59870;50.106;8.580;2023-09-30T11:43:35;26.40;51.50
11246;DHT22;59870;50.106;8.580;2023-09-30T11:46:10;26.40;52.40
11246;DHT22;59870;50.106;8.580;2023-09-30T11:48:38;26.20;51.80
11246;DHT22;59870;50.106;8.580;2023-09-30T11:51:07;26.10;51.10
11246;DHT22;59870;50.106;8.580;2023-09-30T11:53:35;26.30;51.80
11246;DHT22;59870;50.106;8.580;2023-09-30T11:56:03;25.90;50.80
11246;DHT22;59870;50.106;8.580;2023-09-30T11:58:32;25.80;49.70
11246;DHT22;59870;50.106;8.580;2023-09-30T12:01:00;25.80;50.80
11246;DHT22;59870;50.106;8.580;2023-09-30T12:03:27;25.70;53.10
11246;DHT22;59870;50.106;8.580;2023-09-30T12:05:55;25.70;53.60
11246;DHT22;59870;50.106;8.580;2023-09-30T12:08:23;25.60;51.40
11246;DHT22;59870;50.106;8.580;2023-09-30T12:10:51;25.70;50.50
11246;DHT22;59870;50.106;8.580;2023-09-30T12:13:18;25.80;49.80
11246;DHT22;59870;50.106;8.580;2023-09-30T12:15:46;25.60;48.60
11246;DHT22;59870;50.106;8.580;2023-09-30T12:18:13;25.60;48.40
11246;DHT22;59870;50.106;8.580;2023-09-30T12:20:44;25.60;49.10
11246;DHT22;59870;50.106;8.580;2023-09-30T12:23:11;25.80;49.60
11246;DHT22;59870;50.106;8.580;2023-09-30T12:25:39;25.40;46.90
11246;DHT22;59870;50.106;8.580;2023-09-30T12:28:06;25.40;47.70
11246;DHT22;59870;50.106;8.580;2023-09-30T12:30:34;25.40;47.80
11246;DHT22;59870;50.106;8.580;2023-09-30T12:33:01;25.50;47.40
11246;DHT22;59870;50.106;8.580;2023-09-30T12:35:29;25.40;48.20
11246;DHT22;59870;50.106;8.580;2023-09-30T12:37:56;25.40;49.20
11246;DHT22;59870;50.106;8.580;2023-09-30T12:40:24;25.40;49.30
11246;DHT22;59870;50.106;8.580;2023-09-30T12:42:51;25.40;49.70
11246;DHT22;59870;50.106;8.580;2023-09-30T12:45:19;25.40;50.60
11246;DHT22;59870;50.106;8.580;2023-09-30T12:47:46;25.40;49.80
11246;DHT22;59870;50.106;8.580;2023-09-30T12:50:15;25.60;50.70
11246;DHT22;59870;50.106;8.580;2023-09-30T12:52:43;25.40;50.30
11246;DHT22;59870;50.106;8.580;2023-09-30T12:55:11;25.50;50.10
11246;DHT22;59870;50.106;8.580;2023-09-30T12:57:41;25.50;49.90
11246;DHT22;59870;50.106;8.580;2023-09-30T13:00:10;25.80;49.70
11246;DHT22;59870;50.106;8.580;2023-09-30T13:02:37;25.50;48.00
11246;DHT22;59870;50.106;8.580;2023-09-30T13:05:06;25.70;50.40
11246;DHT22;59870;50.106;8.580;2023-09-30T13:07:34;25.50;49.30
11246;DHT22;59870;50.106;8.580;2023-09-30T13:10:02;25.40;49.30
11246;DHT22;59870;50.106;8.580;2023-09-30T13:12:32;25.50;50.30
11246;DHT22;59870;50.106;8.580;2023-09-30T13:15:03;25.60;50.90
11246;DHT22;59870;50.106;8.580;2023-09-30T13:17:30;25.50;49.30
11246;DHT22;59870;50.106;8.580;2023-09-30T13:19:58;25.50;49.60
11246;DHT22;59870;50.106;8.580;2023-09-30T13:22:26;25.60;47.80
11246;DHT22;59870;50.106;8.580;2023-09-30T13:24:53;25.50;48.20
11246;DHT22;59870;50.106;8.580;2023-09-30T13:27:21;25.40;49.50
11246;DHT22;59870;50.106;8.580;2023-09-30T13:29:49;25.40;50.00
11246;DHT22;59870;50.106;8.580;2023-09-30T13:32:17;25.70;48.20
11246;DHT22;59870;50.106;8.580;2023-09-30T13:34:46;25.60;47.80
11246;DHT22;59870;50.106;8.580;2023-09-30T13:37:13;25.30;47.40
11246;DHT22;59870;50.106;8.580;2023-09-30T13:39:41;25.30;48.50
11246;DHT22;59870;50.106;8.580;2023-09-30T13:42:08;25.30;49.00
11246;DHT22;59870;50.106;8.580;2023-09-30T13:44:36;25.20;49.10
11246;DHT22;59870;50.106;8.580;2023-09-30T13:47:04;25.20;48.30
11246;DHT22;59870;50.106;8.580;2023-09-30T13:49:31;25.20;47.70
11246;DHT22;59870;50.106;8.580;2023-09-30T13:52:00;25.30;48.10
11246;DHT22;59870;50.106;8.580;2023-09-30T13:54:29;25.30;48.70
11246;DHT22;59870;50.106;8.580;2023-09-30T13:56:56;25.30;49.30
11246;DHT22;59870;50.106;8.580;2023-09-30T13:59:23;25.20;49.40
11246;DHT22;59870;50.106;8.580;2023-09-30T14:01:51;25.50;50.20
11246;DHT22;59870;50.106;8.580;2023-09-30T14:04:18;25.10;50.20
11246;DHT22;59870;50.106;8.580;2023-09-30T14:06:46;25.10;50.20
11246;DHT22;59870;50.106;8.580;2023-09-30T14:09:15;25.40;50.60
11246;DHT22;59870;50.106;8.580;2023-09-30T14:12:02;25.10;51.30
11246;DHT22;59870;50.106;8.580;2023-09-30T14:14:32;25.10;50.80
11246;DHT22;59870;50.106;8.580;2023-09-30T14:17:01;25.20;51.00
11246;DHT22;59870;50.106;8.580;2023-09-30T14:19:35;25.10;50.00
11246;DHT22;59870;50.106;8.580;2023-09-30T14:22:02;25.10;49.80
11246;DHT22;59870;50.106;8.580;2023-09-30T14:24:33;25.00;49.30
11246;DHT22;59870;50.106;8.580;2023-09-30T14:27:02;25.30;48.60
11246;DHT22;59870;50.106;8.580;2023-09-30T14:29:30;24.90;48.80
11246;DHT22;59870;50.106;8.580;2023-09-30T14:31:58;24.90;49.50
11246;DHT22;59870;50.106;8.580;2023-09-30T14:34:26;24.90;51.50
11246;DHT22;59870;50.106;8.580;2023-09-30T14:36:53;24.90;52.50
11246;DHT22;59870;50.106;8.580;2023-09-30T14:39:20;24.90;52.20
11246;DHT22;59870;50.106;8.580;2023-09-30T14:41:48;24.90;52.90
11246;DHT22;59870;50.106;8.580;2023-09-30T14:44:15;24.90;53.00
11246;DHT22;59870;50.106;8.580;2023-09-30T14:46:43;24.90;53.60
11246;DHT22;59870;50.106;8.580;2023-09-30T14:49:12;25.20;53.30
11246;DHT22;59870;50.106;8.580;2023-09-30T14:51:39;24.90;53.50
11246;DHT22;59870;50.106;8.580;2023-09-30T14:54:07;24.90;54.50
11246;DHT22;59870;50.106;8.580;2023-09-30T14:56:35;25.30;53.90
11246;DHT22;59870;50.106;8.580;2023-09-30T14:59:02;24.90;54.10
11246;DHT22;59870;50.106;8.580;2023-09-30T15:01:31;24.90;53.50
11246;DHT22;59870;50.106;8.580;2023-09-30T15:03:58;24.90;52.70
11246;DHT22;59870;50.106;8.580;2023-09-30T15:06:26;24.90;53.40
11246;DHT22;59870;50.106;8.580;2023-09-30T15:08:55;24.90;53.10
11246;DHT22;59870;50.106;8.580;2023-09-30T15:11:23;25.30;53.50
11246;DHT22;59870;50.106;8.580;2023-09-30T15:13:51;24.90;54.70
11246;DHT22;59870;50.106;8.580;2023-09-30T15:16:20;24.90;54.60
11246;DHT22;59870;50.106;8.580;2023-09-30T15:18:48;24.90;55.50
11246;DHT22;59870;50.106;8.580;2023-09-30T15:21:16;24.90;55.90
11246;DHT22;59870;50.106;8.580;2023-09-30T15:23:44;24.80;55.80
11246;DHT22;59870;50.106;8.580;2023-09-30T15:26:11;24.90;56.40
11246;DHT22;59870;50.106;8.580;2023-09-30T15:28:39;24.90;56.60
11246;DHT22;59870;50.106;8.580;2023-09-30T15:31:06;24.80;55.80
11246;DHT22;59870;50.106;8.580;2023-09-30T15:33:35;24.80;55.60
11246;DHT22;59870;50.106;8.580;2023-09-30T15:36:15;24.70;55.90
11246;DHT22;59870;50.106;8.580;2023-09-30T15:38:46;24.70;56.40
11246;DHT22;59870;50.106;8.580;2023-09-30T15:41:15;24.70;56.60
11246;DHT22;59870;50.106;8.580;2023-09-30T15:43:42;24.70;56.30
11246;DHT22;59870;50.106;8.580;2023-09-30T15:46:11;24.70;56.70
11246;DHT22;59870;50.106;8.580;2023-09-30T15:48:38;24.70;56.80
11246;DHT22;59870;50.106;8.580;2023-09-30T15:51:06;24.60;56.70
11246;DHT22;59870;50.106;8.580;2023-09-30T15:53:33;24.60;57.40
11246;DHT22;59870;50.106;8.580;2023-09-30T15:56:03;24.60;58.50